createdAt,value
2023-05-12T00:02:04.123Z,101361.91
2023-05-12T00:04:32.072Z,101377.06
2023-05-12T00:07:00.189Z,101370.75
2023-05-12T00:09:28.219Z,101378.91
2023-05-12T00:11:57.553Z,101366.34
2023-05-12T00:14:25.777Z,101371.56
2023-05-12T00:16:53.881Z,101361.72
2023-05-12T00:19:22.239Z,101365.31
2023-05-12T00:21:50.233Z,101366.25
2023-05-12T00:24:18.227Z,101372.22
2023-05-12T00:26:46.271Z,101371.22
2023-05-12T00:29:15.688Z,101369.31
2023-05-12T00:31:43.707Z,101379.16
2023-05-12T00:34:11.695Z,101372.09
2023-05-12T00:36:39.979Z,101375.81
2023-05-12T00:39:07.988Z,101370.28
2023-05-12T00:41:36.491Z,101365.78
2023-05-12T00:44:04.555Z,101370.44
2023-05-12T00:46:33.970Z,101379.25
2023-05-12T00:49:02.483Z,101381.84
2023-05-12T00:51:30.931Z,101381.00
2023-05-12T00:53:59.994Z,101376.53
2023-05-12T00:56:28.399Z,101382.81
2023-05-12T00:58:56.416Z,101379.19
2023-05-12T01:01:24.570Z,101378.47
2023-05-12T01:03:54.212Z,101382.22
2023-05-12T01:06:27.186Z,101382.06
2023-05-12T01:08:55.416Z,101389.41
2023-05-12T01:11:23.597Z,101386.56
2023-05-12T01:13:51.529Z,101385.63
2023-05-12T01:16:24.004Z,101390.97
2023-05-12T01:18:55.774Z,101386.53
2023-05-12T01:21:23.826Z,101382.91
2023-05-12T01:23:59.232Z,101381.94
2023-05-12T01:26:29.886Z,101398.00
2023-05-12T01:28:58.772Z,101391.72
2023-05-12T01:31:27.271Z,101395.19
2023-05-12T01:33:55.314Z,101397.88
2023-05-12T01:36:23.346Z,101397.91
2023-05-12T01:38:51.424Z,101395.31
2023-05-12T01:41:19.372Z,101395.41
2023-05-12T01:43:48.649Z,101397.34
2023-05-12T01:46:16.631Z,101409.66
2023-05-12T01:48:44.745Z,101406.19
2023-05-12T01:51:12.745Z,101414.22
2023-05-12T01:53:40.721Z,101418.66
2023-05-12T01:56:08.812Z,101423.09
2023-05-12T01:58:36.899Z,101410.53
2023-05-12T02:01:06.317Z,101414.06
2023-05-12T02:03:34.356Z,101409.66
2023-05-12T02:06:02.452Z,101415.94
2023-05-12T02:08:30.454Z,101424.72
2023-05-12T02:11:06.025Z,101422.03
2023-05-12T02:13:34.162Z,101430.88
2023-05-12T02:16:02.717Z,101436.38
2023-05-12T02:18:32.255Z,101436.34
2023-05-12T02:21:00.580Z,101430.94
2023-05-12T02:23:28.620Z,101425.53
2023-05-12T02:25:56.592Z,101432.75
2023-05-12T02:28:24.734Z,101432.66
2023-05-12T02:30:53.204Z,101429.06
2023-05-12T02:33:22.873Z,101429.06
2023-05-12T02:35:52.310Z,101435.44
2023-05-12T02:38:20.382Z,101433.72
2023-05-12T02:40:48.509Z,101428.25
2023-05-12T02:43:16.461Z,101437.09
2023-05-12T02:45:44.459Z,101432.91
2023-05-12T02:48:12.436Z,101435.66
2023-05-12T02:50:40.470Z,101435.59
2023-05-12T02:53:09.961Z,101433.78
2023-05-12T02:55:37.950Z,101441.84
2023-05-12T02:58:05.908Z,101441.97
2023-05-12T03:00:33.940Z,101437.47
2023-05-12T03:03:02.113Z,101436.56
2023-05-12T03:05:30.119Z,101433.00
2023-05-12T03:07:58.345Z,101439.19
2023-05-12T03:10:27.965Z,101436.69
2023-05-12T03:12:55.899Z,101441.00
2023-05-12T03:15:24.312Z,101445.50
2023-05-12T03:17:52.338Z,101439.13
2023-05-12T03:20:20.907Z,101445.50
2023-05-12T03:22:49.225Z,101442.66
2023-05-12T03:25:17.749Z,101442.63
2023-05-12T03:27:47.566Z,101450.59
2023-05-12T03:30:16.060Z,101447.91
2023-05-12T03:32:45.255Z,101447.91
2023-05-12T03:35:13.305Z,101454.25
2023-05-12T03:37:41.420Z,101455.16
2023-05-12T03:40:10.548Z,101452.47
2023-05-12T03:42:38.604Z,101451.53
2023-05-12T03:45:09.398Z,101449.69
2023-05-12T03:47:37.599Z,101455.03
2023-05-12T03:50:06.532Z,101446.16
2023-05-12T03:52:34.732Z,101451.56
2023-05-12T03:55:02.669Z,101456.00
2023-05-12T03:57:30.917Z,101458.53
2023-05-12T03:59:58.970Z,101455.00
2023-05-12T04:02:28.343Z,101458.44
2023-05-12T04:04:56.434Z,101461.13
2023-05-12T04:07:24.488Z,101464.69
2023-05-12T04:09:52.481Z,101467.31
2023-05-12T04:12:20.476Z,101466.34
2023-05-12T04:14:48.538Z,101436.44
2023-05-12T04:17:18.674Z,101468.09
2023-05-12T04:19:48.083Z,101476.13
2023-05-12T04:22:16.170Z,101477.75
2023-05-12T04:24:44.136Z,101473.19
2023-05-12T04:27:12.148Z,101477.84
2023-05-12T04:29:40.158Z,101483.84
2023-05-12T04:32:09.120Z,101485.25
2023-05-12T04:34:37.342Z,101486.97
2023-05-12T04:37:06.756Z,101481.81
2023-05-12T04:39:34.778Z,101487.53
2023-05-12T04:42:02.999Z,101486.63
2023-05-12T04:44:31.183Z,101494.53
2023-05-12T04:46:59.235Z,101497.47
2023-05-12T04:49:27.203Z,101500.38
2023-05-12T04:51:55.318Z,101498.00
2023-05-12T04:54:24.816Z,101503.47
2023-05-12T04:56:52.806Z,101504.53
2023-05-12T04:59:20.752Z,101515.00
2023-05-12T05:01:48.862Z,101517.66
2023-05-12T05:04:17.015Z,101520.53
2023-05-12T05:06:45.080Z,101519.63
2023-05-12T05:09:13.064Z,101521.22
2023-05-12T05:11:42.406Z,101523.75
2023-05-12T05:14:10.438Z,101529.81
2023-05-12T05:16:38.473Z,101529.81
2023-05-12T05:19:09.410Z,101521.63
2023-05-12T05:21:47.479Z,101527.69
2023-05-12T05:24:15.611Z,101527.78
2023-05-12T05:26:45.721Z,101529.41
2023-05-12T05:29:13.852Z,101541.78
2023-05-12T05:31:41.860Z,101539.00
2023-05-12T05:34:09.864Z,101537.13
2023-05-12T05:36:37.861Z,101548.75
2023-05-12T05:39:05.922Z,101542.97
2023-05-12T05:41:33.861Z,101552.59
2023-05-12T05:44:03.235Z,101555.13
2023-05-12T05:46:31.219Z,101558.53
2023-05-12T05:48:59.204Z,101566.47
2023-05-12T05:51:27.371Z,101560.75
2023-05-12T05:53:55.329Z,101571.25
2023-05-12T05:56:23.927Z,101560.34
2023-05-12T05:58:52.457Z,101563.78
2023-05-12T06:01:21.846Z,101566.22
2023-05-12T06:03:50.009Z,101563.19
2023-05-12T06:06:18.162Z,101568.44
2023-05-12T06:08:46.458Z,101571.63
2023-05-12T06:11:15.899Z,101568.59
2023-05-12T06:13:45.203Z,101574.47
2023-05-12T06:16:13.217Z,101577.88
2023-05-12T06:18:42.652Z,101582.84
2023-05-12T06:21:10.777Z,101582.38
2023-05-12T06:23:38.756Z,101575.88
2023-05-12T06:26:07.736Z,101580.91
2023-05-12T06:28:35.762Z,101588.50
2023-05-12T06:31:03.828Z,101588.25
2023-05-12T06:33:31.784Z,101583.31
2023-05-12T06:36:01.174Z,101590.50
2023-05-12T06:38:29.295Z,101583.88
2023-05-12T06:40:57.280Z,101593.59
2023-05-12T06:43:25.604Z,101598.09
2023-05-12T06:45:53.577Z,101596.84
2023-05-12T06:48:21.732Z,101599.34
2023-05-12T06:50:49.727Z,101600.00
2023-05-12T06:53:19.112Z,101601.22
2023-05-12T06:55:47.252Z,101601.22
2023-05-12T06:58:15.235Z,101605.09
2023-05-12T07:00:43.239Z,101603.91
2023-05-12T07:03:11.281Z,101607.72
2023-05-12T07:05:39.606Z,101608.22
2023-05-12T07:08:07.861Z,101603.53
2023-05-12T07:10:38.022Z,101612.75
2023-05-12T07:13:06.086Z,101616.78
2023-05-12T07:15:34.340Z,101621.75
2023-05-12T07:18:02.377Z,101630.50
2023-05-12T07:20:30.442Z,101622.00
2023-05-12T07:22:58.578Z,101623.16
2023-05-12T07:25:26.656Z,101623.41
2023-05-12T07:27:56.262Z,101618.03
2023-05-12T07:30:24.396Z,101611.81
2023-05-12T07:32:52.965Z,101622.22
2023-05-12T07:35:21.187Z,101617.06
2023-05-12T07:37:49.511Z,101625.88
2023-05-12T07:40:17.799Z,101623.41
2023-05-12T07:42:45.890Z,101625.50
2023-05-12T07:45:22.737Z,101631.34
2023-05-12T07:47:51.700Z,101635.28
2023-05-12T07:50:20.443Z,101626.94
2023-05-12T07:52:49.893Z,101631.75
2023-05-12T07:55:18.888Z,101631.09
2023-05-12T07:57:47.195Z,101636.28
2023-05-12T08:00:17.409Z,101638.91
2023-05-12T08:02:47.005Z,101635.88
2023-05-12T08:05:15.120Z,101643.69
2023-05-12T08:07:43.989Z,101638.63
2023-05-12T08:10:13.093Z,101646.25
2023-05-12T08:12:41.458Z,101632.28
2023-05-12T08:15:10.407Z,101643.63
2023-05-12T08:17:39.935Z,101641.59
2023-05-12T08:20:09.100Z,101645.91
2023-05-12T08:22:37.186Z,101650.66
2023-05-12T08:25:06.034Z,101649.19
2023-05-12T08:27:34.080Z,101643.97
2023-05-12T08:30:02.065Z,101642.38
2023-05-12T08:32:30.105Z,101641.88
2023-05-12T08:34:59.550Z,101644.81
2023-05-12T08:37:28.035Z,101641.50
2023-05-12T08:39:56.324Z,101641.19
2023-05-12T08:42:32.254Z,101637.97
2023-05-12T08:45:01.708Z,101637.97
2023-05-12T08:47:30.645Z,101634.66
2023-05-12T08:50:03.416Z,101638.13
2023-05-12T08:52:34.490Z,101633.03
2023-05-12T08:55:03.732Z,101640.13
2023-05-12T08:57:32.288Z,101634.41
2023-05-12T09:00:00.316Z,101629.50
2023-05-12T09:02:40.941Z,101639.34
2023-05-12T09:05:14.240Z,101638.81
2023-05-12T09:07:44.993Z,101647.41
2023-05-12T09:10:32.988Z,101638.06
2023-05-12T09:13:05.842Z,101643.66
2023-05-12T09:15:40.150Z,101638.72
2023-05-12T09:18:08.235Z,101639.50
2023-05-12T09:20:37.735Z,101635.88
2023-05-12T09:23:16.515Z,101640.09
2023-05-12T09:25:44.753Z,101639.63
2023-05-12T09:28:12.767Z,101640.31
2023-05-12T09:30:42.518Z,101642.47
2023-05-12T09:33:12.253Z,101647.72
2023-05-12T09:35:43.293Z,101638.72
2023-05-12T09:38:12.967Z,101639.00
2023-05-12T09:40:41.290Z,101634.38
2023-05-12T09:43:09.858Z,101638.50
2023-05-12T09:45:38.902Z,101640.41
2023-05-12T09:48:11.963Z,101635.25
2023-05-12T09:50:49.644Z,101635.88
2023-05-12T09:53:19.167Z,101633.94
2023-05-12T09:55:49.470Z,101634.41
2023-05-12T09:58:18.730Z,101635.38
2023-05-12T10:03:21.983Z,101635.25
2023-05-12T10:05:54.170Z,101632.63
2023-05-12T10:08:26.099Z,101633.91
2023-05-12T10:10:56.825Z,101623.16
2023-05-12T10:13:26.303Z,101619.09
2023-05-12T10:15:57.779Z,101624.66
2023-05-12T10:18:26.080Z,101626.78
2023-05-12T10:20:57.685Z,101637.94
2023-05-12T10:23:27.484Z,101638.56
2023-05-12T10:25:58.626Z,101623.00
2023-05-12T10:28:26.708Z,101628.78
2023-05-12T10:30:55.614Z,101638.03
2023-05-12T10:33:26.321Z,101631.91
2023-05-12T10:35:55.809Z,101634.59
2023-05-12T10:38:23.948Z,101626.81
2023-05-12T10:40:58.096Z,101620.84
2023-05-12T10:43:27.744Z,101612.09
2023-05-12T10:46:11.733Z,101629.16
2023-05-12T10:48:53.042Z,101630.63
2023-05-12T10:51:23.791Z,101627.34
2023-05-12T10:53:54.838Z,101629.63
2023-05-12T10:56:25.197Z,101623.53
2023-05-12T10:59:12.968Z,101623.06
2023-05-12T11:01:43.073Z,101628.16
2023-05-12T11:04:16.273Z,101632.00
2023-05-12T11:06:47.157Z,101641.13
2023-05-12T11:09:17.505Z,101628.31
2023-05-12T11:11:45.986Z,101626.41
2023-05-12T11:14:14.590Z,101633.38
2023-05-12T11:16:44.351Z,101627.38
2023-05-12T11:19:12.839Z,101622.75
2023-05-12T11:21:41.172Z,101632.41
2023-05-12T11:24:14.819Z,101636.47
2023-05-12T11:26:42.809Z,101632.91
2023-05-12T11:29:11.193Z,101637.69
2023-05-12T11:31:39.545Z,101642.13
2023-05-12T11:34:12.995Z,101642.13
2023-05-12T11:36:43.298Z,101630.31
2023-05-12T11:39:17.628Z,101644.09
2023-05-12T11:41:46.007Z,101641.56
2023-05-12T11:44:15.682Z,101635.34
2023-05-12T11:46:43.790Z,101636.78
2023-05-12T11:49:13.059Z,101636.72
2023-05-12T11:51:44.484Z,101646.41
2023-05-12T11:54:12.536Z,101634.59
2023-05-12T11:56:48.922Z,101635.63
2023-05-12T11:59:28.041Z,101639.28
2023-05-12T12:01:56.545Z,101642.38
2023-05-12T12:04:35.333Z,101642.59
2023-05-12T12:07:03.708Z,101635.69
2023-05-12T12:09:33.116Z,101642.03
2023-05-12T12:12:03.851Z,101644.16
2023-05-12T12:14:33.383Z,101636.97
2023-05-12T12:17:01.536Z,101643.06
2023-05-12T12:19:29.582Z,101649.44
2023-05-12T12:21:58.613Z,101651.00
2023-05-12T12:24:27.085Z,101642.78
2023-05-12T12:26:55.130Z,101639.78
2023-05-12T12:29:26.139Z,101640.72
2023-05-12T12:31:54.135Z,101637.53
2023-05-12T12:34:23.903Z,101628.44
2023-05-12T12:36:52.626Z,101639.03
2023-05-12T12:39:21.780Z,101628.63
2023-05-12T12:41:50.223Z,101623.88
2023-05-12T12:44:18.219Z,101635.63
2023-05-12T12:46:47.674Z,101622.44
2023-05-12T12:49:15.679Z,101623.59
2023-05-12T12:51:46.698Z,101634.81
2023-05-12T12:54:15.884Z,101624.38
2023-05-12T12:56:44.329Z,101607.97
2023-05-12T12:59:12.804Z,101619.34
2023-05-12T13:01:40.869Z,101620.44
2023-05-12T13:04:10.484Z,101606.38
2023-05-12T13:06:38.437Z,101613.06
2023-05-12T13:09:06.451Z,101616.41
2023-05-12T13:11:34.444Z,101616.38
2023-05-12T13:14:04.420Z,101615.22
2023-05-12T13:16:32.606Z,101616.84
2023-05-12T13:19:00.675Z,101615.81
2023-05-12T13:21:30.341Z,101615.75
2023-05-12T13:23:58.296Z,101613.50
2023-05-12T13:26:26.688Z,101601.91
2023-05-12T13:28:54.761Z,101596.91
2023-05-12T13:31:22.986Z,101606.06
2023-05-12T13:33:51.037Z,101602.06
2023-05-12T13:36:19.034Z,101599.88
2023-05-12T13:38:48.381Z,101601.44
2023-05-12T13:41:16.397Z,101602.28
2023-05-12T13:43:44.955Z,101599.75
2023-05-12T13:46:12.988Z,101607.13
2023-05-12T13:48:41.885Z,101605.00
2023-05-12T13:51:09.892Z,101590.97
2023-05-12T13:53:39.526Z,101589.53
2023-05-12T13:56:09.724Z,101591.44
2023-05-12T13:58:37.738Z,101596.88
2023-05-12T14:01:08.540Z,101598.69
2023-05-12T14:03:37.079Z,101595.81
2023-05-12T14:06:05.694Z,101595.06
2023-05-12T14:08:33.695Z,101595.75
2023-05-12T14:11:01.712Z,101588.47
2023-05-12T14:13:31.456Z,101580.88
2023-05-12T14:15:59.458Z,101580.19
2023-05-12T14:18:27.832Z,101577.34
2023-05-12T14:20:55.823Z,101586.31
2023-05-12T14:23:23.818Z,101592.84
2023-05-12T14:25:51.828Z,101590.19
2023-05-12T14:28:19.838Z,101585.56
2023-05-12T14:30:49.515Z,101589.72
2023-05-12T14:33:17.658Z,101589.03
2023-05-12T14:35:55.711Z,101587.97
2023-05-12T14:38:27.780Z,101597.66
2023-05-12T14:40:55.854Z,101592.97
2023-05-12T14:43:23.853Z,101595.75
2023-05-12T14:45:54.867Z,101599.09
2023-05-12T14:48:23.533Z,101599.53
2023-05-12T14:50:53.261Z,101597.16
2023-05-12T14:53:21.599Z,101597.81
2023-05-12T14:55:50.154Z,101593.56
2023-05-12T14:58:18.665Z,101595.94
2023-05-12T15:00:47.432Z,101590.06
2023-05-12T15:03:16.970Z,101596.22
2023-05-12T15:06:01.593Z,101598.38
2023-05-12T15:08:33.365Z,101595.03
2023-05-12T15:11:01.394Z,101603.13
2023-05-12T15:13:29.457Z,101600.72
2023-05-12T15:15:57.632Z,101600.88
2023-05-12T15:18:27.131Z,101606.47
2023-05-12T15:20:55.174Z,101606.34
2023-05-12T15:23:23.395Z,101605.25
2023-05-12T15:25:51.446Z,101598.38
2023-05-12T15:28:19.459Z,101596.09
2023-05-12T15:30:55.500Z,101596.09
2023-05-12T15:33:23.749Z,101601.16
2023-05-12T15:35:53.066Z,101603.72
2023-05-12T15:38:21.218Z,101615.06
2023-05-12T15:40:49.226Z,101593.03
2023-05-12T15:43:18.114Z,101600.88
2023-05-12T15:45:46.153Z,101591.84
2023-05-12T15:48:14.188Z,101612.78
2023-05-12T15:50:42.247Z,101609.69
2023-05-12T15:53:11.688Z,101607.84
2023-05-12T15:55:40.409Z,101608.06
2023-05-12T15:58:09.089Z,101611.31
2023-05-12T16:00:37.470Z,101605.31
2023-05-12T16:03:05.688Z,101620.25
2023-05-12T16:05:37.728Z,101605.66
2023-05-12T16:08:05.767Z,101616.91
2023-05-12T16:10:35.176Z,101619.72
2023-05-12T16:13:03.200Z,101611.38
2023-05-12T16:15:31.228Z,101616.78
2023-05-12T16:17:59.323Z,101608.69
2023-05-12T16:20:27.851Z,101610.84
2023-05-12T16:22:55.820Z,101607.31
2023-05-12T16:25:23.911Z,101608.22
2023-05-12T16:27:53.538Z,101607.47
2023-05-12T16:30:21.652Z,101601.56
2023-05-12T16:32:49.647Z,101606.47
2023-05-12T16:35:17.826Z,101604.81
2023-05-12T16:37:45.874Z,101606.66
2023-05-12T16:40:14.063Z,101604.38
2023-05-12T16:42:42.677Z,101612.78
2023-05-12T16:45:12.982Z,101602.72
2023-05-12T16:47:41.042Z,101607.81
2023-05-12T16:50:10.348Z,101603.63
2023-05-12T16:52:38.360Z,101606.94
2023-05-12T16:55:07.362Z,101619.41
2023-05-12T16:57:35.382Z,101613.66
2023-05-12T17:00:05.611Z,101612.81
2023-05-12T17:02:35.040Z,101613.06
2023-05-12T17:05:03.363Z,101616.63
2023-05-12T17:07:31.387Z,101616.97
2023-05-12T17:09:59.402Z,101611.59
2023-05-12T17:12:27.502Z,101614.34
2023-05-12T17:15:06.980Z,101620.88
2023-05-12T17:17:37.402Z,101608.06
2023-05-12T17:20:07.078Z,101620.38
2023-05-12T17:22:41.468Z,101623.84
2023-05-12T17:25:09.966Z,101628.88
2023-05-12T17:27:37.937Z,101631.69
2023-05-12T17:30:06.938Z,101631.88
2023-05-12T17:32:34.979Z,101635.91
2023-05-12T17:35:04.656Z,101633.44
2023-05-12T17:37:33.593Z,101625.56
2023-05-12T17:40:01.994Z,101634.53
2023-05-12T17:42:31.353Z,101634.88
2023-05-12T17:44:59.744Z,101640.28
2023-05-12T17:47:28.418Z,101630.13
2023-05-12T17:49:56.737Z,101644.66
2023-05-12T17:52:26.246Z,101650.88
2023-05-12T17:54:57.260Z,101652.72
2023-05-12T17:57:25.326Z,101654.53
2023-05-12T17:59:53.393Z,101648.59
2023-05-12T18:02:21.559Z,101647.31
2023-05-12T18:04:49.994Z,101661.25
2023-05-12T18:07:18.191Z,101650.31
2023-05-12T18:09:47.972Z,101652.97
2023-05-12T18:12:17.517Z,101658.03
2023-05-12T18:14:46.154Z,101654.47
2023-05-12T18:17:14.186Z,101655.25
2023-05-12T18:19:42.228Z,101656.38
2023-05-12T18:22:10.332Z,101661.38
2023-05-12T18:24:38.314Z,101663.56
2023-05-12T18:27:07.840Z,101672.09
2023-05-12T18:29:35.912Z,101667.03
2023-05-12T18:32:03.911Z,101674.53
2023-05-12T18:34:32.065Z,101677.19
2023-05-12T18:37:00.126Z,101685.47
2023-05-12T18:39:28.186Z,101657.72
2023-05-12T18:41:56.463Z,101678.97
2023-05-12T18:44:26.343Z,101681.56
2023-05-12T18:46:54.345Z,101680.50
2023-05-12T18:49:22.449Z,101681.28
2023-05-12T18:51:50.503Z,101685.63
2023-05-12T18:54:18.474Z,101688.91
2023-05-12T18:56:47.430Z,101684.00
2023-05-12T18:59:15.421Z,101684.16
2023-05-12T19:01:44.941Z,101687.59
2023-05-12T19:04:13.194Z,101687.84
2023-05-12T19:06:41.217Z,101692.28
2023-05-12T19:09:09.224Z,101690.16
2023-05-12T19:11:37.409Z,101697.09
2023-05-12T19:14:06.319Z,101705.47
2023-05-12T19:16:36.270Z,101705.22
2023-05-12T19:19:06.137Z,101707.09
2023-05-12T19:21:34.223Z,101710.59
2023-05-12T19:24:02.241Z,101709.75
2023-05-12T19:26:30.802Z,101715.03
2023-05-12T19:29:00.456Z,101717.09
2023-05-12T19:31:28.717Z,101704.75
2023-05-12T19:33:56.809Z,101719.03
2023-05-12T19:36:27.607Z,101719.97
2023-05-12T19:38:59.495Z,101723.94
2023-05-12T19:41:28.625Z,101721.38
2023-05-12T19:43:57.058Z,101716.56
2023-05-12T19:46:25.304Z,101717.09
2023-05-12T19:48:53.677Z,101726.06
2023-05-12T19:51:21.696Z,101726.84
2023-05-12T19:53:51.030Z,101718.47
2023-05-12T19:56:19.750Z,101726.59
2023-05-12T19:58:47.944Z,101735.75
2023-05-12T20:01:16.031Z,101738.25
2023-05-12T20:03:44.137Z,101733.63
2023-05-12T20:06:12.211Z,101730.84
2023-05-12T20:08:40.211Z,101739.50
2023-05-12T20:11:09.553Z,101740.25
2023-05-12T20:13:37.553Z,101739.09
2023-05-12T20:16:05.853Z,101739.19
2023-05-12T20:18:33.930Z,101745.81
2023-05-12T20:21:01.936Z,101750.50
2023-05-12T20:23:30.017Z,101746.50
2023-05-12T20:25:57.994Z,101749.31
2023-05-12T20:28:28.248Z,101754.00
2023-05-12T20:30:56.332Z,101755.94
2023-05-12T20:33:24.357Z,101756.28
2023-05-12T20:35:52.353Z,101762.41
2023-05-12T20:38:20.644Z,101763.25
2023-05-12T20:40:48.779Z,101762.53
2023-05-12T20:43:16.856Z,101762.47
2023-05-12T20:45:46.265Z,101766.38
2023-05-12T20:48:14.451Z,101763.28
2023-05-12T20:50:43.110Z,101775.16
2023-05-12T20:53:11.220Z,101777.44
2023-05-12T20:55:42.901Z,101777.00
2023-05-12T20:58:10.984Z,101771.31
2023-05-12T21:00:39.012Z,101777.38
2023-05-12T21:03:14.400Z,101776.53
2023-05-12T21:05:47.517Z,101780.13
2023-05-12T21:08:15.869Z,101781.84
2023-05-12T21:10:43.913Z,101779.59
2023-05-12T21:13:11.890Z,101779.06
2023-05-12T21:15:39.933Z,101785.97
2023-05-12T21:18:09.329Z,101779.63
2023-05-12T21:20:37.708Z,101786.88
2023-05-12T21:23:09.302Z,101778.31
2023-05-12T21:25:37.344Z,101786.38
2023-05-12T21:28:06.994Z,101781.66
2023-05-12T21:30:36.815Z,101786.00
2023-05-12T21:33:05.649Z,101782.31
2023-05-12T21:35:35.010Z,101778.78
2023-05-12T21:38:02.970Z,101785.09
2023-05-12T21:40:31.107Z,101790.50
2023-05-12T21:42:59.203Z,101787.22
2023-05-12T21:45:27.215Z,101784.28
2023-05-12T21:47:55.389Z,101790.22
2023-05-12T21:50:23.572Z,101792.03
2023-05-12T21:52:53.104Z,101793.03
2023-05-12T21:55:21.588Z,101795.59
2023-05-12T21:57:49.607Z,101795.31
2023-05-12T22:00:20.083Z,101790.00
2023-05-12T22:02:48.821Z,101799.38
2023-05-12T22:05:16.987Z,101787.78
2023-05-12T22:07:44.959Z,101790.06
2023-05-12T22:10:14.337Z,101793.63
2023-05-12T22:12:42.471Z,101801.47
2023-05-12T22:15:11.186Z,101801.56
2023-05-12T22:17:39.704Z,101796.31
2023-05-12T22:20:09.102Z,101797.44
2023-05-12T22:22:37.087Z,101799.03
2023-05-12T22:25:05.626Z,101797.38
2023-05-12T22:27:34.952Z,101796.47
2023-05-12T22:30:03.081Z,101798.50
2023-05-12T22:32:31.180Z,101803.97
2023-05-12T22:34:59.158Z,101809.31
2023-05-12T22:37:27.275Z,101805.16
2023-05-12T22:39:55.660Z,101806.06
2023-05-12T22:42:23.617Z,101805.44
2023-05-12T22:44:52.952Z,101807.22
2023-05-12T22:47:20.978Z,101804.69
2023-05-12T22:49:49.029Z,101811.94
2023-05-12T22:52:17.393Z,101813.56
2023-05-12T22:54:45.437Z,101814.59
2023-05-12T22:57:13.411Z,101814.44
2023-05-12T22:59:41.437Z,101822.59
2023-05-12T23:02:10.794Z,101814.94
2023-05-12T23:04:38.788Z,101819.31
2023-05-12T23:07:09.133Z,101814.13
2023-05-12T23:09:37.478Z,101819.66
2023-05-12T23:12:06.434Z,101821.56
2023-05-12T23:14:34.444Z,101818.06
2023-05-12T23:17:02.505Z,101811.16
2023-05-12T23:19:32.013Z,101818.34
2023-05-12T23:22:00.067Z,101811.34
2023-05-12T23:24:28.032Z,101812.22
2023-05-12T23:26:56.126Z,101808.66
2023-05-12T23:29:24.169Z,101808.63
2023-05-12T23:31:52.186Z,101805.09
2023-05-12T23:34:20.501Z,101813.22
2023-05-12T23:36:49.911Z,101821.19
2023-05-12T23:39:17.940Z,101813.44
2023-05-12T23:41:46.137Z,101812.50
2023-05-12T23:44:14.494Z,101818.84
2023-05-12T23:46:42.607Z,101813.53
2023-05-12T23:49:10.671Z,101810.06
2023-05-12T23:51:38.730Z,101813.78
2023-05-12T23:54:08.286Z,101823.53
2023-05-12T23:56:36.303Z,101808.31
2023-05-12T23:59:04.414Z,101810.19
